createdAt,value
2018-11-05T00:00:00.043Z,927.92
2018-11-05T00:01:00.119Z,927.92
2018-11-05T00:02:00.232Z,927.91
2018-11-05T00:03:00.171Z,927.89
2018-11-05T00:04:00.227Z,927.89
2018-11-05T00:05:00.244Z,927.88
2018-11-05T00:06:00.312Z,927.95
2018-11-05T00:07:00.376Z,927.92
2018-11-05T00:08:00.433Z,927.88
2018-11-05T00:09:00.438Z,927.92
2018-11-05T00:10:00.494Z,927.97
2018-11-05T00:11:00.521Z,927.93
2018-11-05T00:12:00.674Z,927.92
2018-11-05T00:13:00.617Z,927.97
2018-11-05T00:14:00.664Z,927.96
2018-11-05T00:15:00.739Z,927.93
2018-11-05T00:16:00.780Z,927.88
2018-11-05T00:17:00.790Z,927.89
2018-11-05T00:18:00.808Z,927.93
2018-11-05T00:19:00.861Z,927.94
2018-11-05T00:20:00.920Z,927.87
2018-11-05T00:21:00.944Z,927.86
2018-11-05T00:22:00.991Z,927.91
2018-11-05T00:23:01.082Z,927.88
2018-11-05T00:24:01.098Z,927.93
2018-11-05T00:25:01.112Z,928.07
2018-11-05T00:26:01.185Z,928.01
2018-11-05T00:27:01.214Z,928.14
2018-11-05T00:28:01.360Z,928.12
2018-11-05T00:29:01.343Z,928.21
2018-11-05T00:30:01.335Z,928.21
2018-11-05T00:31:01.373Z,928.21
2018-11-05T00:32:01.412Z,928.21
2018-11-05T00:33:01.498Z,928.23
2018-11-05T00:34:01.512Z,928.30
2018-11-05T00:35:01.556Z,928.28
2018-11-05T00:36:01.586Z,928.29
2018-11-05T00:37:01.699Z,928.28
2018-11-05T00:38:01.780Z,928.31
2018-11-05T00:39:01.732Z,928.42
2018-11-05T00:40:01.794Z,928.38
2018-11-05T00:41:01.822Z,928.31
2018-11-05T00:42:01.867Z,928.37
2018-11-05T00:43:01.910Z,928.38
2018-11-05T00:44:01.939Z,928.33
2018-11-05T00:45:01.995Z,928.30
2018-11-05T00:46:02.031Z,928.36
2018-11-05T00:47:02.085Z,928.39
2018-11-05T00:48:02.106Z,928.45
2018-11-05T00:49:02.163Z,928.44
2018-11-05T00:50:02.225Z,928.47
2018-11-05T00:51:02.263Z,928.47
2018-11-05T00:52:02.319Z,928.44
2018-11-05T00:53:02.320Z,928.44
2018-11-05T00:54:02.364Z,928.48
2018-11-05T00:55:02.417Z,928.47
2018-11-05T00:56:02.459Z,928.45
2018-11-05T00:57:02.507Z,928.47
2018-11-05T00:58:02.542Z,928.40
2018-11-05T00:59:02.692Z,928.41
2018-11-05T01:00:02.629Z,928.37
2018-11-05T01:01:02.681Z,928.39
2018-11-05T01:02:02.754Z,928.38
2018-11-05T01:03:02.750Z,928.40
2018-11-05T01:04:02.804Z,928.37
2018-11-05T01:05:02.844Z,928.40
2018-11-05T01:06:02.866Z,928.39
2018-11-05T01:07:02.971Z,928.37
2018-11-05T01:08:02.977Z,928.45
2018-11-05T01:09:03.041Z,928.43
2018-11-05T01:10:03.172Z,928.42
2018-11-05T01:11:03.075Z,928.47
2018-11-05T01:12:03.152Z,928.50
2018-11-05T01:13:03.195Z,928.53
2018-11-05T01:14:03.205Z,928.44
2018-11-05T01:15:03.261Z,928.49
2018-11-05T01:16:03.325Z,928.50
2018-11-05T01:17:03.373Z,928.46
2018-11-05T01:18:03.409Z,928.45
2018-11-05T01:19:03.424Z,928.43
2018-11-05T01:20:03.485Z,928.49
2018-11-05T01:21:03.533Z,928.45
2018-11-05T01:22:03.550Z,928.48
2018-11-05T01:23:03.607Z,928.55
2018-11-05T01:24:03.656Z,928.44
2018-11-05T01:25:03.695Z,928.47
2018-11-05T01:26:03.798Z,928.47
2018-11-05T01:27:03.780Z,928.48
2018-11-05T01:28:03.829Z,928.49
2018-11-05T01:29:03.884Z,928.49
2018-11-05T01:30:03.897Z,928.53
2018-11-05T01:31:04.039Z,928.51
2018-11-05T01:32:03.997Z,928.56
2018-11-05T01:33:04.042Z,928.57
2018-11-05T01:34:04.067Z,928.55
2018-11-05T01:35:04.119Z,928.54
2018-11-05T01:36:04.189Z,928.57
2018-11-05T01:37:04.265Z,928.50
2018-11-05T01:38:04.281Z,928.43
2018-11-05T01:39:04.337Z,928.51
2018-11-05T01:40:04.362Z,928.56
2018-11-05T01:41:04.391Z,928.53
2018-11-05T01:42:04.525Z,928.54
2018-11-05T01:43:04.472Z,928.50
2018-11-05T01:44:04.571Z,928.46
2018-11-05T01:45:04.552Z,928.44
2018-11-05T01:46:04.611Z,928.45
2018-11-05T01:47:04.661Z,928.43
2018-11-05T01:48:04.688Z,928.45
2018-11-05T01:49:04.715Z,928.42
2018-11-05T01:50:04.774Z,928.44
2018-11-05T01:51:04.850Z,928.45
2018-11-05T01:52:04.847Z,928.46
2018-11-05T01:53:04.921Z,928.41
2018-11-05T01:54:04.942Z,928.34
2018-11-05T01:55:04.979Z,928.43
2018-11-05T01:56:05.035Z,928.37
2018-11-05T01:57:05.089Z,928.39
2018-11-05T01:58:05.213Z,928.49
2018-11-05T01:59:05.170Z,928.41
2018-11-05T02:00:05.249Z,928.42
2018-11-05T02:01:05.271Z,928.40
2018-11-05T02:02:05.274Z,928.29
2018-11-05T02:03:05.491Z,928.38
2018-11-05T02:04:05.378Z,928.36
2018-11-05T02:05:05.410Z,928.44
2018-11-05T02:06:05.518Z,928.40
2018-11-05T02:07:05.526Z,928.36
2018-11-05T02:08:05.769Z,928.33
2018-11-05T02:09:05.680Z,928.34
2018-11-05T02:10:05.684Z,928.29
2018-11-05T02:11:05.738Z,928.30
2018-11-05T02:12:05.779Z,928.34
2018-11-05T02:13:05.796Z,928.26
2018-11-05T02:14:05.863Z,928.26
2018-11-05T02:15:05.953Z,928.33
2018-11-05T02:16:06.054Z,928.28
2018-11-05T02:17:06.001Z,928.29
2018-11-05T02:18:06.150Z,928.31
2018-11-05T02:19:06.074Z,928.29
2018-11-05T02:20:06.138Z,928.35
2018-11-05T02:21:06.226Z,928.35
2018-11-05T02:22:06.235Z,928.30
2018-11-05T02:23:06.239Z,928.33
2018-11-05T02:24:06.266Z,928.36
2018-11-05T02:25:06.342Z,928.35
2018-11-05T02:26:06.382Z,928.34
2018-11-05T02:27:06.461Z,928.29
2018-11-05T02:28:06.431Z,928.32
2018-11-05T02:29:06.464Z,928.33
2018-11-05T02:30:06.579Z,928.44
2018-11-05T02:31:06.611Z,928.31
2018-11-05T02:32:06.640Z,928.26
2018-11-05T02:33:06.633Z,928.22
2018-11-05T02:34:06.715Z,928.30
2018-11-05T02:35:06.812Z,928.28
2018-11-05T02:36:06.805Z,928.21
2018-11-05T02:37:06.817Z,928.29
2018-11-05T02:38:06.827Z,928.24
2018-11-05T02:39:07.246Z,928.21
2018-11-05T02:40:06.930Z,928.15
2018-11-05T02:41:06.973Z,928.18
2018-11-05T02:42:07.061Z,928.15
2018-11-05T02:43:07.066Z,928.16
2018-11-05T02:44:07.221Z,928.20
2018-11-05T02:45:07.140Z,928.12
2018-11-05T02:46:07.195Z,928.13
2018-11-05T02:47:07.230Z,928.21
2018-11-05T02:48:07.265Z,928.20
2018-11-05T02:49:07.334Z,928.16
2018-11-05T02:50:07.366Z,928.14
2018-11-05T02:51:07.404Z,928.16
2018-11-05T02:52:07.449Z,928.16
2018-11-05T02:53:07.503Z,928.15
2018-11-05T02:54:07.536Z,928.15
2018-11-05T02:55:07.686Z,928.16
2018-11-05T02:56:07.627Z,928.14
2018-11-05T02:57:07.712Z,928.17
2018-11-05T02:58:07.722Z,928.14
2018-11-05T02:59:07.757Z,928.14
2018-11-05T03:00:07.817Z,928.18
2018-11-05T03:01:07.840Z,928.12
2018-11-05T03:02:07.898Z,928.12
2018-11-05T03:03:07.970Z,928.17
2018-11-05T03:04:07.963Z,928.16
2018-11-05T03:05:08.007Z,928.11
2018-11-05T03:06:08.195Z,928.17
2018-11-05T03:07:08.090Z,928.20
2018-11-05T03:08:08.135Z,928.21
2018-11-05T03:09:08.188Z,928.21
2018-11-05T03:10:08.223Z,928.20
2018-11-05T03:11:08.312Z,928.23
2018-11-05T03:12:08.309Z,928.20
2018-11-05T03:13:08.402Z,928.23
2018-11-05T03:14:08.396Z,928.20
2018-11-05T03:15:08.428Z,928.18
2018-11-05T03:16:08.582Z,928.19
2018-11-05T03:17:08.504Z,928.16
2018-11-05T03:18:08.564Z,928.16
2018-11-05T03:19:08.584Z,928.17
2018-11-05T03:20:08.639Z,928.12
2018-11-05T03:21:08.706Z,928.17
2018-11-05T03:22:08.895Z,928.18
2018-11-05T03:23:08.768Z,928.18
2018-11-05T03:24:08.814Z,928.15
2018-11-05T03:25:08.861Z,928.11
2018-11-05T03:26:08.899Z,928.13
2018-11-05T03:27:08.966Z,928.10
2018-11-05T03:28:08.964Z,928.10
2018-11-05T03:29:09.051Z,928.12
2018-11-05T03:30:09.074Z,928.08
2018-11-05T03:31:09.139Z,928.08
2018-11-05T03:32:09.171Z,928.02
2018-11-05T03:33:09.212Z,928.01
2018-11-05T03:34:09.253Z,927.99
2018-11-05T03:35:09.326Z,928.01
2018-11-05T03:36:09.333Z,927.96
2018-11-05T03:37:09.361Z,927.94
2018-11-05T03:38:09.427Z,927.93
2018-11-05T03:39:09.453Z,927.93
2018-11-05T03:40:09.487Z,927.96
2018-11-05T03:41:09.535Z,927.93
2018-11-05T03:42:09.569Z,927.94
2018-11-05T03:43:09.602Z,927.92
2018-11-05T03:44:09.656Z,928.00
2018-11-05T03:45:09.704Z,927.95
2018-11-05T03:46:09.730Z,927.95
2018-11-05T03:47:09.794Z,927.96
2018-11-05T03:48:09.812Z,927.96
2018-11-05T03:49:09.864Z,927.99
2018-11-05T03:50:09.958Z,927.96
2018-11-05T03:51:09.964Z,927.92
2018-11-05T03:52:09.998Z,927.95
2018-11-05T03:53:10.032Z,927.92
2018-11-05T03:54:10.107Z,927.95
2018-11-05T03:55:10.110Z,927.94
2018-11-05T03:56:10.325Z,927.97
2018-11-05T03:57:10.216Z,927.99
2018-11-05T03:58:10.227Z,927.96
2018-11-05T03:59:10.311Z,927.95
2018-11-05T04:00:10.331Z,927.98
2018-11-05T04:01:10.356Z,927.97
2018-11-05T04:02:10.457Z,927.88
2018-11-05T04:03:10.501Z,927.93
2018-11-05T04:04:10.526Z,927.87
2018-11-05T04:05:10.564Z,927.90
2018-11-05T04:06:10.642Z,927.92
2018-11-05T04:07:10.672Z,927.90
2018-11-05T04:08:10.650Z,927.87
2018-11-05T04:09:10.755Z,927.85
2018-11-05T04:10:10.742Z,927.83
2018-11-05T04:11:10.804Z,927.82
2018-11-05T04:12:10.837Z,927.82
2018-11-05T04:13:10.865Z,927.79
2018-11-05T04:14:10.998Z,927.78
2018-11-05T04:15:10.968Z,927.76
2018-11-05T04:16:11.188Z,927.76
2018-11-05T04:17:11.050Z,927.75
2018-11-05T04:18:11.081Z,927.75
2018-11-05T04:19:11.133Z,927.64
2018-11-05T04:20:11.259Z,927.62
2018-11-05T04:21:11.257Z,927.65
2018-11-05T04:22:11.264Z,927.62
2018-11-05T04:23:11.293Z,927.60
2018-11-05T04:24:11.311Z,927.59
2018-11-05T04:25:11.384Z,927.60
2018-11-05T04:26:11.409Z,927.57
2018-11-05T04:27:11.489Z,927.58
2018-11-05T04:28:11.528Z,927.56
2018-11-05T04:29:11.537Z,927.53
2018-11-05T04:30:11.601Z,927.55
2018-11-05T04:31:11.635Z,927.54
2018-11-05T04:32:11.665Z,927.53
2018-11-05T04:33:11.713Z,927.52
2018-11-05T04:34:11.752Z,927.47
2018-11-05T04:35:11.789Z,927.54
2018-11-05T04:36:11.847Z,927.51
2018-11-05T04:37:11.897Z,927.47
2018-11-05T04:38:11.915Z,927.41
2018-11-05T04:39:12.007Z,927.44
2018-11-05T04:40:12.007Z,927.45
2018-11-05T04:41:12.055Z,927.38
2018-11-05T04:42:12.090Z,927.39
2018-11-05T04:43:12.141Z,927.41
2018-11-05T04:44:12.193Z,927.49
2018-11-05T04:45:12.248Z,927.34
2018-11-05T04:46:12.364Z,927.35
2018-11-05T04:47:12.315Z,927.35
2018-11-05T04:48:12.391Z,927.37
2018-11-05T04:49:12.398Z,927.34
2018-11-05T04:50:12.426Z,927.35
2018-11-05T04:51:12.473Z,927.33
2018-11-05T04:52:12.537Z,927.33
2018-11-05T04:53:12.563Z,927.26
2018-11-05T04:54:12.603Z,927.29
2018-11-05T04:55:12.637Z,927.29
2018-11-05T04:56:12.790Z,927.20
2018-11-05T04:57:12.752Z,927.23
2018-11-05T04:58:12.753Z,927.24
2018-11-05T04:59:12.792Z,927.23
2018-11-05T05:00:12.860Z,927.23
2018-11-05T05:01:12.883Z,927.19
2018-11-05T05:02:12.972Z,927.15
2018-11-05T05:03:13.022Z,927.17
2018-11-05T05:04:13.024Z,927.17
2018-11-05T05:05:13.070Z,927.15
2018-11-05T05:06:13.108Z,927.15
2018-11-05T05:07:13.406Z,927.18
2018-11-05T05:08:13.182Z,927.18
2018-11-05T05:09:13.252Z,927.14
2018-11-05T05:10:13.268Z,927.20
2018-11-05T05:11:13.345Z,927.14
2018-11-05T05:12:13.482Z,927.17
2018-11-05T05:13:13.463Z,927.29
2018-11-05T05:14:13.456Z,927.19
2018-11-05T05:15:13.513Z,927.19
2018-11-05T05:16:13.581Z,927.20
2018-11-05T05:17:13.573Z,927.21
2018-11-05T05:18:13.619Z,927.24
2018-11-05T05:19:13.700Z,927.13
2018-11-05T05:20:13.698Z,927.22
2018-11-05T05:21:13.788Z,927.22
2018-11-05T05:22:14.145Z,927.20
2018-11-05T05:23:13.826Z,927.17
2018-11-05T05:24:13.870Z,927.20
2018-11-05T05:25:13.913Z,927.18
2018-11-05T05:26:13.949Z,927.18
2018-11-05T05:27:14.111Z,927.19
2018-11-05T05:28:14.054Z,927.18
2018-11-05T05:29:14.103Z,927.24
2018-11-05T05:30:14.124Z,927.27
2018-11-05T05:31:14.171Z,927.21
2018-11-05T05:32:14.203Z,927.23
2018-11-05T05:33:14.446Z,927.22
2018-11-05T05:34:14.335Z,927.22
2018-11-05T05:35:14.334Z,927.18
2018-11-05T05:36:14.397Z,927.26
2018-11-05T05:37:14.421Z,927.23
2018-11-05T05:38:14.465Z,927.22
2018-11-05T05:39:14.498Z,927.22
2018-11-05T05:40:14.554Z,927.24
2018-11-05T05:41:14.624Z,927.19
2018-11-05T05:42:14.746Z,927.19
2018-11-05T05:43:14.711Z,927.17
2018-11-05T05:44:14.727Z,927.17
2018-11-05T05:45:14.753Z,927.19
2018-11-05T05:46:14.814Z,927.24
2018-11-05T05:47:14.863Z,927.24
2018-11-05T05:48:14.893Z,927.25
2018-11-05T05:49:14.923Z,927.30
2018-11-05T05:50:15.161Z,927.27
2018-11-05T05:51:15.036Z,927.34
2018-11-05T05:52:15.046Z,927.32
2018-11-05T05:53:15.104Z,927.33
2018-11-05T05:54:15.148Z,927.40
2018-11-05T05:55:15.186Z,927.32
2018-11-05T05:56:15.241Z,927.32
2018-11-05T05:57:15.265Z,927.32
2018-11-05T05:58:15.325Z,927.31
2018-11-05T05:59:15.378Z,927.32
2018-11-05T06:00:15.397Z,927.28
2018-11-05T06:01:15.453Z,927.23
2018-11-05T06:02:15.526Z,927.28
2018-11-05T06:03:15.537Z,927.27
2018-11-05T06:04:15.585Z,927.27
2018-11-05T06:05:15.619Z,927.26
2018-11-05T06:06:15.810Z,927.30
2018-11-05T06:07:15.692Z,927.33
2018-11-05T06:08:15.849Z,927.28
2018-11-05T06:09:15.771Z,927.34
2018-11-05T06:10:15.818Z,927.38
2018-11-05T06:11:15.867Z,927.35
2018-11-05T06:12:15.917Z,927.43
2018-11-05T06:13:15.950Z,927.39
2018-11-05T06:14:16.005Z,927.39
2018-11-05T06:15:16.040Z,927.35
2018-11-05T06:16:16.084Z,927.38
2018-11-05T06:17:16.139Z,927.40
2018-11-05T06:18:16.164Z,927.40
2018-11-05T06:19:16.293Z,927.39
2018-11-05T06:20:16.242Z,927.37
2018-11-05T06:21:16.273Z,927.47
2018-11-05T06:22:16.387Z,927.47
2018-11-05T06:23:16.380Z,927.53
2018-11-05T06:24:16.419Z,927.54
2018-11-05T06:25:16.713Z,927.53
2018-11-05T06:26:16.493Z,927.53
2018-11-05T06:27:16.519Z,927.58
2018-11-05T06:28:16.639Z,927.61
2018-11-05T06:29:16.648Z,927.59
2018-11-05T06:30:16.816Z,927.59
2018-11-05T06:31:16.703Z,927.50
2018-11-05T06:32:16.750Z,927.51
2018-11-05T06:33:16.959Z,927.44
2018-11-05T06:34:16.845Z,927.49
2018-11-05T06:35:16.933Z,927.46
2018-11-05T06:36:16.934Z,927.48
2018-11-05T06:37:16.977Z,927.51
2018-11-05T06:38:16.999Z,927.47
2018-11-05T06:39:17.093Z,927.49
2018-11-05T06:40:17.195Z,927.52
2018-11-05T06:41:17.192Z,927.55
2018-11-05T06:42:17.232Z,927.51
2018-11-05T06:43:17.275Z,927.48
2018-11-05T06:44:17.383Z,927.51
2018-11-05T06:45:17.453Z,927.53
2018-11-05T06:46:17.336Z,927.52
2018-11-05T06:47:17.428Z,927.63
2018-11-05T06:48:17.447Z,927.65
2018-11-05T06:49:17.521Z,927.57
2018-11-05T06:50:17.779Z,927.59
2018-11-05T06:51:17.560Z,927.60
2018-11-05T06:52:17.676Z,927.55
2018-11-05T06:53:17.646Z,927.57
2018-11-05T06:54:17.728Z,927.56
2018-11-05T06:55:17.723Z,927.55
2018-11-05T06:56:17.790Z,927.56
2018-11-05T06:57:17.804Z,927.52
2018-11-05T06:58:17.850Z,927.52
2018-11-05T06:59:17.881Z,927.53
2018-11-05T07:00:18.032Z,927.53
2018-11-05T07:01:17.981Z,927.52
2018-11-05T07:02:18.083Z,927.53
2018-11-05T07:03:18.072Z,927.53
2018-11-05T07:04:18.123Z,927.53
2018-11-05T07:05:18.152Z,927.55
2018-11-05T07:06:18.310Z,927.57
2018-11-05T07:07:18.255Z,927.58
2018-11-05T07:08:18.300Z,927.68
2018-11-05T07:09:18.381Z,927.64
2018-11-05T07:10:18.400Z,927.67
2018-11-05T07:11:18.492Z,927.60
2018-11-05T07:12:18.454Z,927.56
2018-11-05T07:13:18.487Z,927.55
2018-11-05T07:14:18.548Z,927.58
2018-11-05T07:15:18.582Z,927.65
2018-11-05T07:16:18.630Z,927.62
2018-11-05T07:17:18.661Z,927.64
2018-11-05T07:18:18.793Z,927.67
2018-11-05T07:19:18.966Z,927.73
2018-11-05T07:20:18.799Z,927.70
2018-11-05T07:21:18.837Z,927.74
2018-11-05T07:22:18.901Z,927.80
2018-11-05T07:23:18.923Z,927.76
2018-11-05T07:24:18.984Z,927.78
2018-11-05T07:25:18.999Z,927.77
2018-11-05T07:26:19.065Z,927.77
2018-11-05T07:27:19.194Z,927.82
2018-11-05T07:28:19.123Z,927.75
2018-11-05T07:29:19.185Z,927.73
2018-11-05T07:30:19.196Z,927.74
2018-11-05T07:31:19.256Z,927.73
2018-11-05T07:32:19.306Z,927.75
2018-11-05T07:33:19.470Z,927.80
2018-11-05T07:34:19.507Z,927.79
2018-11-05T07:35:19.444Z,927.85
2018-11-05T07:36:19.498Z,927.82
2018-11-05T07:37:19.509Z,927.81
2018-11-05T07:38:19.559Z,927.77
2018-11-05T07:39:19.607Z,927.76
2018-11-05T07:40:19.695Z,927.78
2018-11-05T07:41:19.810Z,927.77
2018-11-05T07:42:19.751Z,927.81
2018-11-05T07:43:19.803Z,927.86
2018-11-05T07:44:19.802Z,927.83
2018-11-05T07:45:19.856Z,927.85
2018-11-05T07:46:19.926Z,927.87
2018-11-05T07:47:19.995Z,927.83
2018-11-05T07:48:20.001Z,927.81
2018-11-05T07:49:20.040Z,927.78
2018-11-05T07:50:20.180Z,927.83
2018-11-05T07:51:20.148Z,927.75
2018-11-05T07:52:20.172Z,927.78
2018-11-05T07:53:20.186Z,927.82
2018-11-05T07:54:20.253Z,927.83
2018-11-05T07:55:20.305Z,927.88
2018-11-05T07:56:20.371Z,927.87
2018-11-05T07:57:20.394Z,927.82
2018-11-05T07:58:20.666Z,927.86
2018-11-05T07:59:20.478Z,927.82
2018-11-05T08:00:20.531Z,927.83
2018-11-05T08:01:20.551Z,927.84
2018-11-05T08:02:20.575Z,927.82
2018-11-05T08:03:20.640Z,927.86
2018-11-05T08:04:20.653Z,927.85
2018-11-05T08:05:20.712Z,927.88
2018-11-05T08:06:20.774Z,927.87
2018-11-05T08:07:20.794Z,927.91
2018-11-05T08:08:20.930Z,927.87
2018-11-05T08:09:21.129Z,927.80
2018-11-05T08:10:20.928Z,927.88
2018-11-05T08:11:20.983Z,927.86
2018-11-05T08:12:20.999Z,927.85
2018-11-05T08:13:21.042Z,927.82
2018-11-05T08:14:21.258Z,927.85
2018-11-05T08:15:21.156Z,927.84
2018-11-05T08:16:21.228Z,927.92
2018-11-05T08:17:21.245Z,927.89
2018-11-05T08:18:21.277Z,927.91
2018-11-05T08:19:21.420Z,927.91
2018-11-05T08:20:21.356Z,927.89
2018-11-05T08:21:21.409Z,927.92
2018-11-05T08:22:21.441Z,927.98
2018-11-05T08:23:21.467Z,927.94
2018-11-05T08:24:21.524Z,927.89
2018-11-05T08:25:21.585Z,928.05
2018-11-05T08:26:21.629Z,927.94
2018-11-05T08:27:21.667Z,927.92
2018-11-05T08:28:21.693Z,927.93
2018-11-05T08:29:21.720Z,927.94
2018-11-05T08:30:21.800Z,927.97
2018-11-05T08:31:21.815Z,928.00
2018-11-05T08:32:21.861Z,927.99
2018-11-05T08:33:21.895Z,928.04
2018-11-05T08:34:22.112Z,928.06
2018-11-05T08:35:22.000Z,928.15
2018-11-05T08:36:22.030Z,928.10
2018-11-05T08:37:22.121Z,928.06
2018-11-05T08:38:22.123Z,928.13
2018-11-05T08:39:22.146Z,928.10
2018-11-05T08:40:22.275Z,928.18
2018-11-05T08:41:22.251Z,928.14
2018-11-05T08:42:22.294Z,928.17
2018-11-05T08:43:22.334Z,928.22
2018-11-05T08:44:22.371Z,928.23
2018-11-05T08:45:22.423Z,928.27
2018-11-05T08:46:22.489Z,928.29
2018-11-05T08:47:22.555Z,928.29
2018-11-05T08:48:22.550Z,928.30
2018-11-05T08:49:22.593Z,928.32
2018-11-05T08:50:23.140Z,928.30
2018-11-05T08:51:23.022Z,928.33
2018-11-05T08:52:22.720Z,928.29
2018-11-05T08:53:22.749Z,928.34
2018-11-05T08:54:22.818Z,928.38
2018-11-05T08:55:22.958Z,928.46
2018-11-05T08:56:22.877Z,928.44
2018-11-05T08:57:22.938Z,928.40
2018-11-05T08:58:22.978Z,928.44
2018-11-05T08:59:23.024Z,928.46
2018-11-05T09:00:23.072Z,928.51
2018-11-05T09:01:23.114Z,928.47
2018-11-05T09:02:23.147Z,928.53
2018-11-05T09:03:23.195Z,928.54
2018-11-05T09:04:23.236Z,928.57
2018-11-05T09:05:23.530Z,928.58
2018-11-05T09:06:23.364Z,928.57
2018-11-05T09:07:23.357Z,928.60
2018-11-05T09:08:23.405Z,928.61
2018-11-05T09:09:23.459Z,928.64
2018-11-05T09:10:23.763Z,928.65
2018-11-05T09:11:24.091Z,928.63
2018-11-05T09:12:23.568Z,928.69
2018-11-05T09:13:23.660Z,928.65
2018-11-05T09:14:23.659Z,928.62
2018-11-05T09:15:23.712Z,928.62
2018-11-05T09:16:23.726Z,928.63
2018-11-05T09:17:23.788Z,928.63
2018-11-05T09:18:23.834Z,928.64
2018-11-05T09:19:23.892Z,928.61
2018-11-05T09:20:23.921Z,928.61
2018-11-05T09:21:24.055Z,928.59
2018-11-05T09:22:24.020Z,928.67
2018-11-05T09:23:24.044Z,928.63
2018-11-05T09:24:24.076Z,928.64
2018-11-05T09:25:24.131Z,928.68
2018-11-05T09:26:24.159Z,928.68
2018-11-05T09:27:24.223Z,928.68
2018-11-05T09:28:24.252Z,928.72
2018-11-05T09:29:24.312Z,928.73
2018-11-05T09:30:24.337Z,928.75
2018-11-05T09:31:24.408Z,928.79
2018-11-05T09:32:24.536Z,928.77
2018-11-05T09:33:24.503Z,928.78
2018-11-05T09:34:24.523Z,928.81
2018-11-05T09:35:24.565Z,928.84
2018-11-05T09:36:24.653Z,928.83
2018-11-05T09:37:24.660Z,928.84
2018-11-05T09:38:24.686Z,928.84
2018-11-05T09:39:24.740Z,928.87
2018-11-05T09:40:24.776Z,928.89
2018-11-05T09:41:24.817Z,928.89
2018-11-05T09:42:24.872Z,928.88
2018-11-05T09:43:24.900Z,928.86
2018-11-05T09:44:24.952Z,928.90
2018-11-05T09:45:24.990Z,928.93
2018-11-05T09:46:25.016Z,928.91
2018-11-05T09:47:25.090Z,929.00
2018-11-05T09:48:25.129Z,928.95
2018-11-05T09:49:25.190Z,928.93
2018-11-05T09:50:25.266Z,928.95
2018-11-05T09:51:25.246Z,928.91
2018-11-05T09:52:25.304Z,928.94
2018-11-05T09:53:25.316Z,928.95
2018-11-05T09:54:25.391Z,929.03
2018-11-05T09:55:25.430Z,928.99
2018-11-05T09:56:25.492Z,929.01
2018-11-05T09:57:25.709Z,929.01
2018-11-05T09:58:25.564Z,929.02
2018-11-05T09:59:25.599Z,929.04
2018-11-05T10:00:25.662Z,929.02
2018-11-05T10:01:25.693Z,929.05
2018-11-05T10:02:25.732Z,929.07
2018-11-05T10:03:26.147Z,929.06
2018-11-05T10:04:25.962Z,929.08
2018-11-05T10:05:25.876Z,929.13
2018-11-05T10:06:25.916Z,929.12
2018-11-05T10:07:25.964Z,929.07
2018-11-05T10:08:25.992Z,929.08
2018-11-05T10:09:26.022Z,929.08
2018-11-05T10:10:26.175Z,929.14
2018-11-05T10:11:26.126Z,929.08
2018-11-05T10:12:26.185Z,929.15
2018-11-05T10:13:26.245Z,929.18
2018-11-05T10:14:26.299Z,929.19
2018-11-05T10:15:26.312Z,929.17
2018-11-05T10:16:26.439Z,929.19
2018-11-05T10:17:26.389Z,929.21
2018-11-05T10:18:26.574Z,929.24
2018-11-05T10:19:26.476Z,929.30
2018-11-05T10:20:26.532Z,929.30
2018-11-05T10:21:26.589Z,929.26
2018-11-05T10:22:26.620Z,929.37
2018-11-05T10:23:26.871Z,929.23
2018-11-05T10:24:26.844Z,929.32
2018-11-05T10:25:26.743Z,929.30
2018-11-05T10:26:27.007Z,929.28
2018-11-05T10:27:26.889Z,929.39
2018-11-05T10:28:26.904Z,929.43
2018-11-05T10:29:26.922Z,929.41
2018-11-05T10:30:26.995Z,929.42
2018-11-05T10:31:27.050Z,929.47
2018-11-05T10:32:27.090Z,929.47
2018-11-05T10:33:27.201Z,929.49
2018-11-05T10:34:27.171Z,929.51
2018-11-05T10:35:27.481Z,929.49
2018-11-05T10:36:27.262Z,929.45
2018-11-05T10:37:27.328Z,929.47
2018-11-05T10:38:27.431Z,929.45
2018-11-05T10:39:27.424Z,929.44
2018-11-05T10:40:27.689Z,929.54
2018-11-05T10:41:27.536Z,929.51
2018-11-05T10:42:27.551Z,929.55
2018-11-05T10:43:27.628Z,929.56
2018-11-05T10:44:27.681Z,929.55
2018-11-05T10:45:27.722Z,929.55
2018-11-05T10:46:27.764Z,929.53
2018-11-05T10:47:27.824Z,929.53
2018-11-05T10:48:27.879Z,929.50
2018-11-05T10:49:27.927Z,929.52
2018-11-05T10:50:28.153Z,929.57
2018-11-05T10:51:28.119Z,929.49
2018-11-05T10:52:28.160Z,929.55
2018-11-05T10:53:28.109Z,929.55
2018-11-05T10:54:28.153Z,929.59
2018-11-05T10:55:28.233Z,929.56
2018-11-05T10:56:28.269Z,929.60
2018-11-05T10:57:28.331Z,929.63
2018-11-05T10:58:28.391Z,929.59
2018-11-05T10:59:28.408Z,929.59
2018-11-05T11:00:28.461Z,929.70
2018-11-05T11:01:28.519Z,929.68
2018-11-05T11:02:28.580Z,929.62
2018-11-05T11:03:28.617Z,929.71
2018-11-05T11:04:28.731Z,929.71
2018-11-05T11:05:28.791Z,929.66
2018-11-05T11:06:28.769Z,929.61
2018-11-05T11:07:28.815Z,929.70
2018-11-05T11:08:28.874Z,929.70
2018-11-05T11:09:28.976Z,929.71
2018-11-05T11:10:28.999Z,929.77
2018-11-05T11:11:29.009Z,929.76
2018-11-05T11:12:29.078Z,929.83
2018-11-05T11:13:29.171Z,929.80
2018-11-05T11:14:29.190Z,929.79
2018-11-05T11:15:29.260Z,929.84
2018-11-05T11:16:29.256Z,929.87
2018-11-05T11:17:29.319Z,929.88
2018-11-05T11:18:29.391Z,929.89
2018-11-05T11:19:29.402Z,929.96
2018-11-05T11:20:29.503Z,929.90
2018-11-05T11:21:29.548Z,929.88
2018-11-05T11:22:29.687Z,929.83
2018-11-05T11:23:29.604Z,929.92
2018-11-05T11:24:29.669Z,929.93
2018-11-05T11:25:29.784Z,929.96
2018-11-05T11:26:29.745Z,930.00
2018-11-05T11:27:29.863Z,930.00
2018-11-05T11:28:29.968Z,930.00
2018-11-05T11:29:30.190Z,929.99
2018-11-05T11:30:29.960Z,930.03
2018-11-05T11:31:30.005Z,930.00
2018-11-05T11:32:30.068Z,930.09
2018-11-05T11:33:30.109Z,930.08
2018-11-05T11:34:30.158Z,930.09
2018-11-05T11:35:30.189Z,930.13
2018-11-05T11:36:30.280Z,930.06
2018-11-05T11:37:30.310Z,930.05
2018-11-05T11:38:30.447Z,930.08
2018-11-05T11:39:30.391Z,930.06
2018-11-05T11:40:30.422Z,930.04
2018-11-05T11:41:30.496Z,930.02
2018-11-05T11:42:30.523Z,930.04
2018-11-05T11:43:30.593Z,930.03
2018-11-05T11:44:30.619Z,930.06
2018-11-05T11:45:30.725Z,930.11
2018-11-05T11:46:30.718Z,930.13
2018-11-05T11:47:30.788Z,930.15
2018-11-05T11:48:30.817Z,930.14
2018-11-05T11:49:30.920Z,930.13
2018-11-05T11:50:30.904Z,930.12
2018-11-05T11:51:30.980Z,930.16
2018-11-05T11:52:31.069Z,930.13
2018-11-05T11:53:31.307Z,930.19
2018-11-05T11:54:31.126Z,930.22
2018-11-05T11:55:31.171Z,930.21
2018-11-05T11:56:31.200Z,930.17
2018-11-05T11:57:31.255Z,930.22
2018-11-05T11:58:31.297Z,930.27
2018-11-05T11:59:31.354Z,930.29
2018-11-05T12:00:31.444Z,930.33
2018-11-05T12:01:31.449Z,930.33
2018-11-05T12:02:31.547Z,930.31
2018-11-05T12:03:31.533Z,930.30
2018-11-05T12:04:31.655Z,930.34
2018-11-05T12:05:31.645Z,930.32
2018-11-05T12:06:31.719Z,930.38
2018-11-05T12:07:31.768Z,930.36
2018-11-05T12:08:31.803Z,930.32
2018-11-05T12:09:31.872Z,930.26
2018-11-05T12:10:31.999Z,930.35
2018-11-05T12:11:31.962Z,930.32
2018-11-05T12:12:31.997Z,930.36
2018-11-05T12:13:32.041Z,930.32
2018-11-05T12:14:32.182Z,930.34
2018-11-05T12:15:32.133Z,930.29
2018-11-05T12:16:32.184Z,930.33
2018-11-05T12:17:32.251Z,930.34
2018-11-05T12:18:32.268Z,930.28
2018-11-05T12:19:32.328Z,930.27
2018-11-05T12:20:32.371Z,930.25
2018-11-05T12:21:32.425Z,930.27
2018-11-05T12:22:32.480Z,930.30
2018-11-05T12:23:32.541Z,930.28
2018-11-05T12:24:32.695Z,930.25
2018-11-05T12:25:32.627Z,930.21
2018-11-05T12:26:32.690Z,930.27
2018-11-05T12:27:32.731Z,930.29
2018-11-05T12:28:32.789Z,930.30